Phillipsville, California
Current Conditions -  °F | °C
As of 8:15 PM on Sunday 25 Jan 2015 (Local Time) from KFOT Reporting Station
Clear Clear  
Wind Chill: 55°   Ceiling: Unl
Heat Index: 55°   Visibility: 10mi
Dew Point: 50°   Wind: 6mph
Humidity: 82%   Direction: 120°ESE
Pressure: 30.02"   Gusts: NA
Location:  40.21°N, 123.78°W
Report Text: KFOT 260415Z AUTO 12005KT 10SM CLR 13/10 A3002 RMK AO1
Loading
Personal Weather Stations






























Interactive Weather Map New forecast layout! Learn more

10-Day Weather Forecast

Advertisements
Track Severe Weather on mobile